Terminal Aerodrome Forecast
Issued by NWS Tulsa, OK

Home | Current Version | Previous Version | Text Only | Print | Product List | Glossary Off
Versions: 1 2 3 4 5 6 7 8 9 10 11 12

000
FTUS44 KTSA 202320
TAFFSM
TAF
KFSM 202320Z 2100/2124 24010KT P6SM FEW060 FEW250
     FM210100 VRB03KT P6SM FEW250
     FM211500 20007KT P6SM FEW050=

USA.gov is the U.S. government's official web portal to all federal, state and local government web resources and services.